createdAt,value
2022-08-01T00:00:44.489Z,100.00
2022-08-01T00:03:17.254Z,100.00
2022-08-01T00:05:46.364Z,100.00
2022-08-01T00:08:15.186Z,100.00
2022-08-01T00:10:46.506Z,100.00
2022-08-01T00:13:17.408Z,100.00
2022-08-01T00:15:54.156Z,100.00
2022-08-01T00:18:27.063Z,100.00
2022-08-01T00:21:04.297Z,100.00
2022-08-01T00:23:32.874Z,100.00
2022-08-01T00:26:01.898Z,100.00
2022-08-01T00:28:29.300Z,100.00
2022-08-01T00:30:56.907Z,100.00
2022-08-01T00:33:24.442Z,100.00
2022-08-01T00:35:51.854Z,100.00
2022-08-01T00:38:19.212Z,100.00
2022-08-01T00:40:46.773Z,100.00
2022-08-01T00:43:14.810Z,100.00
2022-08-01T00:45:43.486Z,100.00
2022-08-01T00:48:11.160Z,100.00
2022-08-01T00:50:39.122Z,100.00
2022-08-01T00:53:08.288Z,100.00
2022-08-01T00:55:37.128Z,100.00
2022-08-01T00:58:06.602Z,100.00
2022-08-01T01:00:52.174Z,100.00
2022-08-01T01:03:43.364Z,100.00
2022-08-01T01:06:38.088Z,100.00
2022-08-01T01:10:05.882Z,100.00
2022-08-01T01:12:50.117Z,100.00
2022-08-01T01:15:47.435Z,100.00
2022-08-01T01:18:33.494Z,100.00
2022-08-01T01:21:19.307Z,100.00
2022-08-01T01:24:27.014Z,100.00
2022-08-01T01:27:39.695Z,100.00
2022-08-01T01:30:09.636Z,100.00
2022-08-01T01:32:44.480Z,100.00
2022-08-01T01:35:25.964Z,100.00
2022-08-01T01:38:06.777Z,100.00
2022-08-01T01:40:35.240Z,100.00
2022-08-01T01:43:02.618Z,100.00
2022-08-01T01:45:31.767Z,100.00
2022-08-01T01:48:02.102Z,100.00
2022-08-01T01:50:30.863Z,100.00
2022-08-01T01:53:00.457Z,100.00
2022-08-01T01:55:29.276Z,100.00
2022-08-01T01:57:58.401Z,100.00
2022-08-01T02:00:26.923Z,100.00
2022-08-01T02:02:57.655Z,100.00
2022-08-01T02:05:27.434Z,100.00
2022-08-01T02:07:59.693Z,100.00
2022-08-01T02:10:30.531Z,100.00
2022-08-01T02:13:00.809Z,100.00
2022-08-01T02:15:31.246Z,100.00
2022-08-01T02:18:00.817Z,100.00
2022-08-01T02:20:31.699Z,100.00
2022-08-01T02:23:09.486Z,100.00
2022-08-01T02:26:09.788Z,100.00
2022-08-01T02:28:58.639Z,100.00
2022-08-01T02:31:27.909Z,100.00
2022-08-01T02:34:11.272Z,100.00
2022-08-01T02:36:41.943Z,100.00
2022-08-01T02:39:17.391Z,100.00
2022-08-01T02:41:49.939Z,100.00
2022-08-01T02:44:40.282Z,100.00
2022-08-01T02:47:08.047Z,100.00
2022-08-01T02:49:46.263Z,100.00
2022-08-01T02:52:17.895Z,100.00
2022-08-01T02:54:47.169Z,100.00
2022-08-01T02:57:16.060Z,100.00
2022-08-01T02:59:47.696Z,100.00
2022-08-01T03:02:18.035Z,100.00
2022-08-01T03:04:46.345Z,100.00
2022-08-01T03:07:15.883Z,100.00
2022-08-01T03:09:47.416Z,100.00
2022-08-01T03:12:25.268Z,100.00
2022-08-01T03:14:55.636Z,100.00
2022-08-01T03:17:30.744Z,100.00
2022-08-01T03:20:00.170Z,100.00
2022-08-01T03:22:30.430Z,100.00
2022-08-01T03:25:00.322Z,100.00
2022-08-01T03:27:28.484Z,100.00
2022-08-01T03:29:58.954Z,100.00
2022-08-01T03:32:28.216Z,100.00
2022-08-01T03:34:55.689Z,100.00
2022-08-01T03:37:54.344Z,100.00
2022-08-01T03:40:42.816Z,100.00
2022-08-01T03:43:49.401Z,100.00
2022-08-01T03:46:30.711Z,100.00
2022-08-01T03:49:06.349Z,100.00
2022-08-01T03:51:35.520Z,100.00
2022-08-01T03:54:05.523Z,100.00
2022-08-01T03:56:35.326Z,100.00
2022-08-01T03:59:04.597Z,100.00
2022-08-01T04:01:34.595Z,100.00
2022-08-01T04:04:02.521Z,100.00
2022-08-01T04:06:31.001Z,100.00
2022-08-01T04:08:59.510Z,100.00
2022-08-01T04:11:28.914Z,100.00
2022-08-01T04:13:58.212Z,100.00
2022-08-01T04:16:26.416Z,100.00
2022-08-01T04:18:53.975Z,100.00
2022-08-01T04:21:30.209Z,100.00
2022-08-01T04:24:07.794Z,100.00
2022-08-01T04:26:38.740Z,100.00
2022-08-01T04:29:09.518Z,100.00
2022-08-01T04:31:40.633Z,100.00
2022-08-01T04:34:11.172Z,100.00
2022-08-01T04:36:43.029Z,100.00
2022-08-01T04:39:12.432Z,100.00
2022-08-01T04:41:40.998Z,100.00
2022-08-01T04:44:09.635Z,100.00
2022-08-01T04:46:38.685Z,100.00
2022-08-01T04:49:12.813Z,100.00
2022-08-01T04:52:01.411Z,100.00
2022-08-01T04:54:31.465Z,100.00
2022-08-01T04:57:00.977Z,100.00
2022-08-01T04:59:41.138Z,100.00
2022-08-01T05:02:19.186Z,100.00
2022-08-01T05:04:47.661Z,100.00
2022-08-01T05:07:16.775Z,100.00
2022-08-01T05:09:46.937Z,100.00
2022-08-01T05:12:14.502Z,100.00
2022-08-01T05:14:42.408Z,100.00
2022-08-01T05:17:10.856Z,100.00
2022-08-01T05:19:40.932Z,100.00
2022-08-01T05:22:10.608Z,100.00
2022-08-01T05:24:40.464Z,100.00
2022-08-01T05:27:09.487Z,100.00
2022-08-01T05:29:44.406Z,100.00
2022-08-01T05:32:12.928Z,100.00
2022-08-01T05:34:40.316Z,100.00
2022-08-01T05:37:08.837Z,100.00
2022-08-01T05:39:36.522Z,100.00
2022-08-01T05:42:05.149Z,100.00
2022-08-01T05:44:33.694Z,100.00
2022-08-01T05:47:01.272Z,100.00
2022-08-01T05:49:28.725Z,100.00
2022-08-01T05:51:56.373Z,100.00
2022-08-01T05:54:23.953Z,100.00
2022-08-01T05:56:53.750Z,100.00
2022-08-01T05:59:22.414Z,100.00
2022-08-01T06:01:50.148Z,100.00
2022-08-01T06:04:17.606Z,100.00
2022-08-01T06:06:45.071Z,100.00
2022-08-01T06:09:12.553Z,100.00
2022-08-01T06:11:40.165Z,100.00
2022-08-01T06:14:07.697Z,100.00
2022-08-01T06:16:36.148Z,100.00
2022-08-01T06:19:03.593Z,100.00
2022-08-01T06:21:31.056Z,100.00
2022-08-01T06:23:58.496Z,100.00
2022-08-01T06:26:25.917Z,100.00
2022-08-01T06:28:56.500Z,100.00
2022-08-01T06:31:24.026Z,100.00
2022-08-01T06:33:51.449Z,100.00
2022-08-01T06:36:19.093Z,100.00
2022-08-01T06:38:46.503Z,100.00
2022-08-01T06:41:13.934Z,100.00
2022-08-01T06:43:41.254Z,100.00
2022-08-01T06:46:09.932Z,100.00
2022-08-01T06:48:40.357Z,100.00
2022-08-01T06:51:12.406Z,100.00
2022-08-01T06:53:40.418Z,100.00
2022-08-01T06:56:09.778Z,100.00
2022-08-01T06:58:38.159Z,100.00
2022-08-01T07:01:08.140Z,100.00
2022-08-01T07:03:53.642Z,98.25
2022-08-01T07:06:25.608Z,100.00
2022-08-01T07:08:56.487Z,100.00
2022-08-01T07:11:25.735Z,97.40
2022-08-01T07:13:53.403Z,95.79
2022-08-01T07:16:21.915Z,85.42
2022-08-01T07:18:50.370Z,88.60
2022-08-01T07:21:40.171Z,87.56
2022-08-01T07:24:12.588Z,86.65
2022-08-01T07:26:52.661Z,86.91
2022-08-01T07:29:47.336Z,77.61
2022-08-01T07:32:15.748Z,79.18
2022-08-01T07:34:45.671Z,79.94
2022-08-01T07:37:13.088Z,79.23
2022-08-01T07:39:40.417Z,79.36
2022-08-01T07:42:08.531Z,80.01
2022-08-01T07:44:37.008Z,81.03
2022-08-01T07:47:06.114Z,81.47
2022-08-01T07:49:40.049Z,78.35
2022-08-01T07:52:09.364Z,75.61
2022-08-01T07:54:39.083Z,73.87
2022-08-01T07:57:06.591Z,74.63
2022-08-01T07:59:34.905Z,72.44
2022-08-01T08:02:02.973Z,72.30
2022-08-01T08:04:32.682Z,75.99
2022-08-01T08:07:00.119Z,74.30
2022-08-01T08:09:29.659Z,75.40
2022-08-01T08:11:57.160Z,74.69
2022-08-01T08:14:32.544Z,76.28
2022-08-01T08:17:02.157Z,77.88
2022-08-01T08:19:37.776Z,74.32
2022-08-01T08:22:10.770Z,75.46
2022-08-01T08:24:45.560Z,78.32
2022-08-01T08:27:15.687Z,74.88
2022-08-01T08:29:43.883Z,74.60
2022-08-01T08:32:12.759Z,73.95
2022-08-01T08:34:40.323Z,74.71
2022-08-01T08:37:09.474Z,75.94
2022-08-01T08:39:41.924Z,75.61
2022-08-01T08:42:12.698Z,75.85
2022-08-01T08:44:44.338Z,74.46
2022-08-01T08:47:20.302Z,73.05
2022-08-01T08:49:52.932Z,73.38
2022-08-01T08:52:23.203Z,74.85
2022-08-01T08:54:52.761Z,73.00
2022-08-01T08:57:22.059Z,70.82
2022-08-01T08:59:52.927Z,71.31
2022-08-01T09:02:22.794Z,72.97
2022-08-01T09:04:51.936Z,73.03
2022-08-01T09:07:20.791Z,72.70
2022-08-01T09:09:50.121Z,71.67
2022-08-01T09:12:21.202Z,73.59
2022-08-01T09:14:51.441Z,74.09
2022-08-01T09:17:18.846Z,74.73
2022-08-01T09:19:54.649Z,73.00
2022-08-01T09:22:25.894Z,69.69
2022-08-01T09:25:11.984Z,72.14
2022-08-01T09:27:46.354Z,71.01
2022-08-01T09:30:23.387Z,71.50
2022-08-01T09:33:06.389Z,72.52
2022-08-01T09:35:55.817Z,66.95
2022-08-01T09:38:28.162Z,66.93
2022-08-01T09:41:01.739Z,67.18
2022-08-01T09:43:32.777Z,68.65
2022-08-01T09:46:12.423Z,64.35
2022-08-01T09:48:56.054Z,61.74
2022-08-01T09:51:59.959Z,59.97
2022-08-01T09:54:34.861Z,60.32
2022-08-01T09:57:18.050Z,61.62
2022-08-01T10:00:00.828Z,61.20
2022-08-01T10:02:44.187Z,62.10
2022-08-01T10:05:18.855Z,60.05
2022-08-01T10:08:02.964Z,61.45
2022-08-01T10:10:37.451Z,61.36
2022-08-01T10:13:06.407Z,59.13
2022-08-01T10:15:38.817Z,59.08
2022-08-01T10:18:16.114Z,59.87
2022-08-01T10:20:45.517Z,58.33
2022-08-01T10:23:13.889Z,57.41
2022-08-01T10:25:47.018Z,55.25
2022-08-01T10:28:24.085Z,54.96
2022-08-01T10:30:53.354Z,58.76
2022-08-01T10:33:50.559Z,54.63
2022-08-01T10:36:13.879Z,57.09
2022-08-01T10:38:41.875Z,57.00
2022-08-01T10:41:10.813Z,57.27
2022-08-01T10:43:38.185Z,58.93
2022-08-01T10:46:06.530Z,58.67
2022-08-01T10:48:45.778Z,60.85
2022-08-01T10:51:17.513Z,53.46
2022-08-01T10:53:55.997Z,55.77
2022-08-01T10:56:26.457Z,54.69
2022-08-01T10:59:06.405Z,52.52
2022-08-01T11:01:44.727Z,52.04
2022-08-01T11:04:17.755Z,53.67
2022-08-01T11:07:25.788Z,54.46
2022-08-01T11:10:24.467Z,50.92
2022-08-01T11:12:52.370Z,51.13
2022-08-01T11:15:29.653Z,52.37
2022-08-01T11:18:03.117Z,47.12
2022-08-01T11:20:42.410Z,42.16
2022-08-01T11:23:17.004Z,43.75
2022-08-01T11:26:05.470Z,45.59
2022-08-01T11:28:36.617Z,42.20
2022-08-01T11:31:11.560Z,41.25
2022-08-01T11:33:46.107Z,41.29
2022-08-01T11:36:15.220Z,41.10
2022-08-01T11:38:59.974Z,40.58
2022-08-01T11:41:37.439Z,41.74
2022-08-01T11:44:11.571Z,41.20
2022-08-01T11:47:15.038Z,38.49
2022-08-01T11:49:56.365Z,38.45
2022-08-01T11:52:41.796Z,37.16
2022-08-01T11:55:11.530Z,37.23
2022-08-01T11:57:39.954Z,37.57
2022-08-01T12:00:18.140Z,36.05
2022-08-01T12:02:48.400Z,36.71
2022-08-01T12:05:21.644Z,38.14
2022-08-01T12:07:54.745Z,37.37
2022-08-01T12:10:47.005Z,36.00
2022-08-01T12:13:23.328Z,35.43
2022-08-01T12:15:56.848Z,37.60
2022-08-01T12:18:29.948Z,38.75
2022-08-01T12:21:08.520Z,37.43
2022-08-01T12:23:43.535Z,36.74
2022-08-01T12:26:32.067Z,37.16
2022-08-01T12:29:04.125Z,38.41
2022-08-01T12:31:51.367Z,39.52
2022-08-01T12:34:38.976Z,43.68
2022-08-01T12:37:07.461Z,37.84
2022-08-01T12:39:40.110Z,37.53
2022-08-01T12:42:12.040Z,37.99
2022-08-01T12:44:47.494Z,37.92
2022-08-01T12:47:16.698Z,37.52
2022-08-01T12:49:49.979Z,37.02
2022-08-01T12:52:26.798Z,38.57
2022-08-01T12:55:34.186Z,36.92
2022-08-01T12:58:37.579Z,38.00
2022-08-01T13:01:59.581Z,36.60
2022-08-01T13:05:04.775Z,37.82
2022-08-01T13:07:54.920Z,38.43
2022-08-01T13:10:45.732Z,34.63
2022-08-01T13:13:53.162Z,33.72
2022-08-01T13:16:49.120Z,33.56
2022-08-01T13:19:20.659Z,31.18
2022-08-01T13:21:59.350Z,29.73
2022-08-01T13:24:33.315Z,30.69
2022-08-01T13:27:07.932Z,29.28
2022-08-01T13:29:48.370Z,28.29
2022-08-01T13:32:32.484Z,27.62
2022-08-01T13:35:10.518Z,27.33
2022-08-01T13:37:40.484Z,24.34
2022-08-01T13:40:11.985Z,25.94
2022-08-01T13:42:39.778Z,25.69
2022-08-01T13:45:14.426Z,24.77
2022-08-01T13:48:12.361Z,23.14
2022-08-01T13:50:33.843Z,25.52
2022-08-01T13:53:01.369Z,24.29
2022-08-01T13:55:34.065Z,26.70
2022-08-01T13:58:03.572Z,24.15
2022-08-01T14:00:31.211Z,24.07
2022-08-01T14:02:58.569Z,23.79
2022-08-01T14:05:25.964Z,24.40
2022-08-01T14:07:56.165Z,21.70
2022-08-01T14:10:25.662Z,23.06
2022-08-01T14:12:56.821Z,20.91
2022-08-01T14:15:38.570Z,23.93
2022-08-01T14:18:10.023Z,23.64
2022-08-01T14:20:40.172Z,22.45
2022-08-01T14:23:08.586Z,20.00
2022-08-01T14:26:03.347Z,20.33
2022-08-01T14:28:31.630Z,22.80
2022-08-01T14:30:59.681Z,21.59
2022-08-01T14:33:28.215Z,22.33
2022-08-01T14:36:01.952Z,23.18
2022-08-01T14:38:46.429Z,23.44
2022-08-01T14:41:16.183Z,23.02
2022-08-01T14:43:43.898Z,22.10
2022-08-01T14:46:13.342Z,22.99
2022-08-01T14:48:41.464Z,21.78
2022-08-01T14:51:09.487Z,20.37
2022-08-01T14:53:37.739Z,20.56
2022-08-01T14:56:05.872Z,20.70
2022-08-01T14:58:34.350Z,20.52
2022-08-01T15:01:02.158Z,22.32
2022-08-01T15:03:29.673Z,19.76
2022-08-01T15:05:57.065Z,20.59
2022-08-01T15:08:24.508Z,20.31
2022-08-01T15:10:53.342Z,19.40
2022-08-01T15:13:21.067Z,19.88
2022-08-01T15:15:49.374Z,19.10
2022-08-01T15:18:16.970Z,20.94
2022-08-01T15:20:44.401Z,19.46
2022-08-01T15:23:11.999Z,19.19
2022-08-01T15:25:41.407Z,19.53
2022-08-01T15:28:13.423Z,21.57
2022-08-01T15:30:41.722Z,19.93
2022-08-01T15:33:09.212Z,18.96
2022-08-01T15:35:37.052Z,17.64
2022-08-01T15:38:04.412Z,18.64
2022-08-01T15:40:35.415Z,17.59
2022-08-01T15:43:08.532Z,17.02
2022-08-01T15:45:49.137Z,17.96
2022-08-01T15:48:18.509Z,18.88
2022-08-01T15:50:49.640Z,21.30
2022-08-01T15:53:19.491Z,19.65
2022-08-01T15:55:52.632Z,18.96
2022-08-01T15:58:21.790Z,17.69
2022-08-01T16:01:01.529Z,17.70
2022-08-01T16:03:29.242Z,17.50
2022-08-01T16:05:59.388Z,19.32
2022-08-01T16:08:27.481Z,18.39
2022-08-01T16:10:56.013Z,18.69
2022-08-01T16:13:24.422Z,18.70
2022-08-01T16:15:58.517Z,17.30
2022-08-01T16:18:28.539Z,17.69
2022-08-01T16:20:58.865Z,16.44
2022-08-01T16:23:27.545Z,17.67
2022-08-01T16:25:56.758Z,19.01
2022-08-01T16:28:24.958Z,19.75
2022-08-01T16:31:09.638Z,19.81
2022-08-01T16:33:54.169Z,18.38
2022-08-01T16:36:36.939Z,19.68
2022-08-01T16:39:10.680Z,18.78
2022-08-01T16:41:57.611Z,19.41
2022-08-01T16:44:35.020Z,19.48
2022-08-01T16:47:06.131Z,17.00
2022-08-01T16:49:38.217Z,18.30
2022-08-01T16:52:09.259Z,17.20
2022-08-01T16:54:40.698Z,17.29
2022-08-01T16:57:09.249Z,17.01
2022-08-01T16:59:42.161Z,17.76
2022-08-01T17:02:11.666Z,16.26
2022-08-01T17:04:42.727Z,17.96
2022-08-01T17:07:14.704Z,18.93
2022-08-01T17:09:43.678Z,19.74
2022-08-01T17:12:21.990Z,19.85
2022-08-01T17:14:53.645Z,19.47
2022-08-01T17:17:23.637Z,19.85
2022-08-01T17:19:55.119Z,19.49
2022-08-01T17:22:27.690Z,19.59
2022-08-01T17:25:00.594Z,19.95
2022-08-01T17:27:28.910Z,19.89
2022-08-01T17:29:58.518Z,21.00
2022-08-01T17:32:26.685Z,21.91
2022-08-01T17:34:54.742Z,22.26
2022-08-01T17:37:22.165Z,22.98
2022-08-01T17:39:49.613Z,22.67
2022-08-01T17:42:17.095Z,23.14
2022-08-01T17:44:46.079Z,23.52
2022-08-01T17:47:28.982Z,24.59
2022-08-01T17:50:08.896Z,24.57
2022-08-01T17:52:37.340Z,24.83
2022-08-01T17:55:06.125Z,25.10
2022-08-01T17:57:55.347Z,25.25
2022-08-01T18:00:22.715Z,25.01
2022-08-01T18:02:49.998Z,24.81
2022-08-01T18:05:17.412Z,25.77
2022-08-01T18:08:01.133Z,25.86
2022-08-01T18:10:29.741Z,25.45
2022-08-01T18:12:57.258Z,25.88
2022-08-01T18:15:26.161Z,26.42
2022-08-01T18:17:54.555Z,26.72
2022-08-01T18:20:22.052Z,27.41
2022-08-01T18:22:49.479Z,28.57
2022-08-01T18:25:16.800Z,28.85
2022-08-01T18:28:21.145Z,29.94
2022-08-01T18:30:33.784Z,31.00
2022-08-01T18:33:01.109Z,31.77
2022-08-01T18:35:52.160Z,32.54
2022-08-01T18:38:17.319Z,33.19
2022-08-01T18:40:45.936Z,33.30
2022-08-01T18:43:13.322Z,33.65
2022-08-01T18:45:42.974Z,34.06
2022-08-01T18:48:11.994Z,34.70
2022-08-01T18:50:39.948Z,34.53
2022-08-01T18:53:07.458Z,35.19
2022-08-01T18:55:34.834Z,35.50
2022-08-01T18:58:02.192Z,35.43
2022-08-01T19:00:29.839Z,36.06
2022-08-01T19:02:57.229Z,35.77
2022-08-01T19:05:24.569Z,35.90
2022-08-01T19:08:04.927Z,36.12
2022-08-01T19:10:34.246Z,36.63
2022-08-01T19:13:02.284Z,36.82
2022-08-01T19:15:29.670Z,37.03
2022-08-01T19:17:57.201Z,37.20
2022-08-01T19:20:24.724Z,37.19
2022-08-01T19:22:52.147Z,37.77
2022-08-01T19:25:20.327Z,38.32
2022-08-01T19:27:50.445Z,38.49
2022-08-01T19:30:19.387Z,38.77
2022-08-01T19:32:48.998Z,38.65
2022-08-01T19:35:17.805Z,39.42
2022-08-01T19:37:50.804Z,40.01
2022-08-01T19:40:27.574Z,41.37
2022-08-01T19:42:57.376Z,40.76
2022-08-01T19:45:29.866Z,41.25
2022-08-01T19:47:58.074Z,41.85
2022-08-01T19:50:29.490Z,41.63
2022-08-01T19:52:58.804Z,41.93
2022-08-01T19:55:30.344Z,43.19
2022-08-01T20:00:50.125Z,43.44
2022-08-01T20:03:19.485Z,43.69
2022-08-01T20:05:47.023Z,44.03
2022-08-01T20:08:16.562Z,44.21
2022-08-01T20:10:45.807Z,43.91
2022-08-01T20:13:14.000Z,43.91
2022-08-01T20:15:44.909Z,44.08
2022-08-01T20:18:12.347Z,43.96
2022-08-01T20:20:40.769Z,43.46
2022-08-01T20:23:18.307Z,43.05
2022-08-01T20:25:52.835Z,42.23
2022-08-01T20:28:28.253Z,41.21
2022-08-01T20:31:05.603Z,40.66
2022-08-01T20:33:40.722Z,40.58
2022-08-01T20:36:11.932Z,40.28
2022-08-01T20:38:42.174Z,40.75
2022-08-01T20:41:10.611Z,40.63
2022-08-01T20:43:38.536Z,40.93
2022-08-01T20:46:06.606Z,40.55
2022-08-01T20:48:34.349Z,40.63
2022-08-01T20:51:17.798Z,41.38
2022-08-01T20:53:49.230Z,41.30
2022-08-01T20:56:59.028Z,41.74
2022-08-01T20:59:52.699Z,41.82
2022-08-01T21:02:52.775Z,42.31
2022-08-01T21:05:56.003Z,42.27
2022-08-01T21:08:49.805Z,42.29
2022-08-01T21:11:21.524Z,41.81
2022-08-01T21:13:51.229Z,41.40
2022-08-01T21:16:32.474Z,40.65
2022-08-01T21:19:22.544Z,39.46
2022-08-01T21:22:10.428Z,39.19
2022-08-01T21:24:58.880Z,39.28
2022-08-01T21:27:33.395Z,39.24
2022-08-01T21:30:08.791Z,39.42
2022-08-01T21:32:37.575Z,39.32
2022-08-01T21:35:16.006Z,39.39
2022-08-01T21:37:52.460Z,39.14
2022-08-01T21:40:24.489Z,38.64
2022-08-01T21:42:54.161Z,38.40
2022-08-01T21:45:27.243Z,38.64
2022-08-01T21:47:57.810Z,38.64
2022-08-01T21:50:26.165Z,38.86
2022-08-01T21:53:43.417Z,38.63
2022-08-01T21:56:44.616Z,38.59
2022-08-01T22:00:01.458Z,37.82
2022-08-01T22:03:11.354Z,37.81
2022-08-01T22:05:42.618Z,38.10
2022-08-01T22:08:36.108Z,38.66
2022-08-01T22:11:08.417Z,38.75
2022-08-01T22:13:37.198Z,39.40
2022-08-01T22:16:07.059Z,40.10
2022-08-01T22:18:36.798Z,40.61
2022-08-01T22:21:04.491Z,41.57
2022-08-01T22:23:37.010Z,42.37
2022-08-01T22:26:09.109Z,42.33
2022-08-01T22:28:39.996Z,42.91
2022-08-01T22:31:07.536Z,43.37
2022-08-01T22:33:38.713Z,46.21
2022-08-01T22:36:07.686Z,45.62
2022-08-01T22:38:35.450Z,48.51
2022-08-01T22:41:14.578Z,48.31
2022-08-01T22:44:00.818Z,49.44
2022-08-01T22:47:10.512Z,50.82
2022-08-01T22:50:01.662Z,50.74
2022-08-01T22:52:31.189Z,48.11
2022-08-01T22:55:09.050Z,48.34
2022-08-01T22:57:50.718Z,46.95
2022-08-01T23:00:19.087Z,46.08
2022-08-01T23:02:53.495Z,47.12
2022-08-01T23:05:25.911Z,46.35
2022-08-01T23:07:56.928Z,46.66
2022-08-01T23:10:26.777Z,47.05
2022-08-01T23:12:56.019Z,46.76
2022-08-01T23:15:24.478Z,47.33
2022-08-01T23:17:52.070Z,48.06
2022-08-01T23:20:19.499Z,48.05
2022-08-01T23:22:47.945Z,48.52
2022-08-01T23:25:17.082Z,48.33
2022-08-01T23:27:51.387Z,48.64
2022-08-01T23:30:35.027Z,51.18
2022-08-01T23:33:03.145Z,50.72
2022-08-01T23:35:35.421Z,52.53
2022-08-01T23:38:10.122Z,51.71
2022-08-01T23:40:38.613Z,52.62
2022-08-01T23:43:16.733Z,53.10
2022-08-01T23:46:04.078Z,53.51
2022-08-01T23:48:35.035Z,53.38
2022-08-01T23:51:04.710Z,52.42
2022-08-01T23:53:33.928Z,53.38
2022-08-01T23:56:03.949Z,52.86
2022-08-01T23:58:32.698Z,51.89
